createdAt,value
2019-01-15T00:00:19.732Z,6.83
2019-01-15T00:01:39.272Z,6.47
2019-01-15T00:03:02.205Z,7.17
2019-01-15T00:04:21.743Z,5.58
2019-01-15T00:05:41.409Z,7.12
2019-01-15T00:07:00.932Z,6.33
2019-01-15T00:08:23.764Z,7.12
2019-01-15T00:09:43.496Z,6.90
2019-01-15T00:11:03.036Z,7.03
2019-01-15T00:12:22.736Z,6.72
2019-01-15T00:13:46.516Z,6.47
2019-01-15T00:15:06.239Z,6.70
2019-01-15T00:16:29.197Z,6.85
2019-01-15T00:17:48.575Z,6.20
2019-01-15T00:18:51.332Z,7.33
2019-01-15T00:20:10.952Z,6.00
2019-01-15T00:21:30.718Z,6.60
2019-01-15T00:22:53.676Z,7.22
2019-01-15T00:24:13.997Z,6.17
2019-01-15T00:25:33.971Z,6.97
2019-01-15T00:26:53.542Z,6.60
2019-01-15T00:28:13.521Z,6.92
2019-01-15T00:29:33.998Z,6.72
2019-01-15T00:30:53.985Z,6.53
2019-01-15T00:32:04.381Z,7.00
2019-01-15T00:33:24.581Z,7.12
2019-01-15T00:34:44.104Z,6.55
2019-01-15T00:36:06.822Z,6.62
2019-01-15T00:37:14.289Z,7.45
2019-01-15T00:38:41.095Z,7.10
2019-01-15T00:40:09.576Z,6.85
2019-01-15T00:41:36.363Z,6.80
2019-01-15T00:43:03.405Z,7.60
2019-01-15T00:44:30.452Z,7.60
2019-01-15T00:45:57.439Z,7.05
2019-01-15T00:47:24.241Z,6.87
2019-01-15T00:48:51.319Z,7.50
2019-01-15T00:50:18.115Z,7.10
2019-01-15T00:51:44.924Z,8.00
2019-01-15T00:53:11.872Z,7.72
2019-01-15T00:54:38.717Z,7.95
2019-01-15T00:56:05.568Z,7.25
2019-01-15T00:57:32.415Z,7.78
2019-01-15T00:58:59.317Z,8.28
2019-01-15T01:00:26.205Z,8.08
2019-01-15T01:01:53.071Z,7.97
2019-01-15T01:03:19.914Z,8.50
2019-01-15T01:04:46.773Z,7.78
2019-01-15T01:06:13.611Z,7.78
2019-01-15T01:07:59.881Z,8.78
2019-01-15T01:09:26.716Z,8.03
2019-01-15T01:12:41.776Z,8.30
2019-01-15T01:14:08.677Z,8.55
2019-01-15T01:17:22.559Z,8.05
2019-01-15T01:18:49.466Z,8.23
2019-01-15T01:20:21.026Z,8.15
2019-01-15T01:21:48.056Z,9.20
2019-01-15T01:23:14.894Z,8.85
2019-01-15T01:24:41.847Z,8.68
2019-01-15T01:26:08.743Z,8.78
2019-01-15T01:27:15.678Z,8.63
2019-01-15T01:28:42.342Z,8.90
2019-01-15T01:30:11.897Z,9.10
2019-01-15T01:31:39.024Z,8.45
2019-01-15T01:33:05.852Z,9.58
2019-01-15T01:34:32.683Z,9.83
2019-01-15T01:35:59.490Z,8.90
2019-01-15T01:37:26.342Z,9.80
2019-01-15T01:38:53.251Z,8.25
2019-01-15T01:40:20.077Z,9.15
2019-01-15T01:41:46.908Z,10.40
2019-01-15T01:43:13.851Z,9.00
2019-01-15T01:44:40.673Z,8.63
2019-01-15T01:46:07.617Z,9.50
2019-01-15T01:47:34.518Z,9.98
2019-01-15T01:49:01.416Z,8.98
2019-01-15T01:50:28.404Z,9.63
2019-01-15T01:51:56.352Z,9.35
2019-01-15T01:53:05.380Z,10.45
2019-01-15T01:54:32.864Z,9.38
2019-01-15T01:56:14.377Z,8.70
2019-01-15T01:57:29.579Z,9.05
2019-01-15T01:58:57.113Z,9.55
2019-01-15T02:00:23.983Z,9.50
2019-01-15T02:01:50.788Z,9.20
2019-01-15T02:03:17.875Z,9.15
2019-01-15T02:05:06.710Z,9.70
2019-01-15T02:06:33.637Z,8.83
2019-01-15T02:08:00.470Z,9.70
2019-01-15T02:09:27.336Z,9.33
2019-01-15T02:10:54.305Z,9.85
2019-01-15T02:12:21.095Z,9.23
2019-01-15T02:13:47.893Z,10.25
2019-01-15T02:15:15.802Z,9.48
2019-01-15T02:16:42.753Z,9.58
2019-01-15T02:18:09.633Z,10.85
2019-01-15T02:19:36.414Z,9.95
2019-01-15T02:21:03.199Z,9.33
2019-01-15T02:22:29.997Z,10.98
2019-01-15T02:23:56.832Z,9.93
2019-01-15T02:25:23.622Z,10.15
2019-01-15T02:26:51.547Z,10.00
2019-01-15T02:28:19.285Z,9.95
2019-01-15T02:29:46.075Z,9.55
2019-01-15T02:31:12.977Z,10.45
2019-01-15T02:32:39.824Z,10.78
2019-01-15T02:33:59.519Z,9.90
2019-01-15T02:35:19.283Z,11.48
2019-01-15T02:36:38.958Z,10.10
2019-01-15T02:37:58.735Z,10.90
2019-01-15T02:39:18.547Z,10.30
2019-01-15T02:40:38.152Z,10.20
2019-01-15T02:42:00.843Z,10.95
2019-01-15T02:43:20.370Z,10.65
2019-01-15T02:44:40.075Z,10.95
2019-01-15T02:46:02.654Z,10.08
2019-01-15T02:47:22.313Z,10.70
2019-01-15T02:48:45.080Z,10.70
2019-01-15T02:50:04.807Z,10.63
2019-01-15T02:51:24.721Z,10.75
2019-01-15T02:52:44.353Z,10.20
2019-01-15T02:54:03.919Z,10.40
2019-01-15T02:55:23.627Z,10.53
2019-01-15T02:56:43.376Z,10.15
2019-01-15T02:58:03.196Z,10.93
2019-01-15T02:59:22.814Z,10.68
2019-01-15T03:00:45.499Z,11.75
2019-01-15T03:02:05.189Z,11.88
2019-01-15T03:03:24.976Z,10.78
2019-01-15T03:04:44.545Z,11.43
2019-01-15T03:06:07.274Z,10.40
2019-01-15T03:07:27.089Z,10.90
2019-01-15T03:08:46.663Z,11.83
2019-01-15T03:10:06.333Z,10.35
2019-01-15T03:11:26.029Z,10.68
2019-01-15T03:12:28.505Z,11.60
2019-01-15T03:13:18.946Z,10.43
2019-01-15T03:14:45.736Z,11.28
2019-01-15T03:16:12.607Z,11.20
2019-01-15T03:17:39.488Z,10.65
2019-01-15T03:19:06.322Z,10.43
2019-01-15T03:20:33.154Z,10.72
2019-01-15T03:22:00.023Z,10.43
2019-01-15T03:23:46.373Z,10.40
2019-01-15T03:25:13.389Z,10.32
2019-01-15T03:26:40.558Z,10.00
2019-01-15T03:28:46.315Z,10.65
2019-01-15T03:30:15.568Z,9.68
2019-01-15T03:31:42.666Z,9.88
2019-01-15T03:33:10.143Z,10.25
2019-01-15T03:34:30.039Z,9.90
2019-01-15T03:35:33.832Z,10.43
2019-01-15T03:36:57.008Z,10.85
2019-01-15T03:38:17.056Z,11.18
2019-01-15T03:39:41.790Z,10.03
2019-01-15T03:41:01.568Z,10.50
2019-01-15T03:42:25.307Z,10.18
2019-01-15T03:43:45.267Z,10.32
2019-01-15T03:45:05.852Z,9.78
2019-01-15T03:46:25.676Z,10.75
2019-01-15T03:47:46.209Z,10.68
2019-01-15T03:49:05.645Z,10.15
2019-01-15T03:50:28.446Z,10.53
2019-01-15T03:51:48.000Z,10.45
2019-01-15T03:53:52.204Z,10.20
2019-01-15T03:55:14.757Z,10.88
2019-01-15T03:56:34.434Z,10.13
2019-01-15T03:57:54.536Z,10.72
2019-01-15T03:59:14.010Z,10.15
2019-01-15T04:00:36.629Z,9.53
2019-01-15T04:01:59.455Z,10.25
2019-01-15T04:03:19.005Z,10.63
2019-01-15T04:04:41.924Z,9.48
2019-01-15T04:06:02.384Z,11.00
2019-01-15T04:07:22.077Z,9.73
2019-01-15T04:08:45.730Z,9.35
2019-01-15T04:10:05.655Z,10.18
2019-01-15T04:11:25.279Z,10.18
2019-01-15T04:12:48.137Z,10.20
2019-01-15T04:14:50.317Z,10.03
2019-01-15T04:16:09.990Z,10.55
2019-01-15T04:17:33.425Z,9.70
2019-01-15T04:18:53.029Z,10.43
2019-01-15T04:20:12.617Z,9.83
2019-01-15T04:21:17.566Z,10.03
2019-01-15T04:22:23.169Z,10.10
2019-01-15T04:23:27.855Z,10.28
2019-01-15T04:24:33.316Z,10.43
2019-01-15T04:25:38.612Z,10.88
2019-01-15T04:26:43.492Z,11.08
2019-01-15T04:27:48.297Z,11.28
2019-01-15T04:28:53.349Z,10.68
2019-01-15T04:29:58.594Z,12.15
2019-01-15T04:31:03.899Z,10.82
2019-01-15T04:32:08.645Z,11.00
2019-01-15T04:33:13.796Z,11.22
2019-01-15T04:34:22.021Z,10.80
2019-01-15T04:35:26.563Z,11.60
2019-01-15T04:36:30.871Z,10.78
2019-01-15T04:37:35.156Z,11.18
2019-01-15T04:38:39.582Z,11.43
2019-01-15T04:39:44.130Z,11.18
2019-01-15T04:40:49.671Z,11.08
2019-01-15T04:41:54.477Z,11.43
2019-01-15T04:42:58.841Z,11.38
2019-01-15T04:44:03.631Z,12.47
2019-01-15T04:45:09.729Z,12.23
2019-01-15T04:46:14.252Z,13.15
2019-01-15T04:47:18.923Z,12.03
2019-01-15T04:48:23.480Z,11.73
2019-01-15T04:49:28.294Z,12.13
2019-01-15T04:50:33.130Z,12.60
2019-01-15T04:51:37.521Z,12.90
2019-01-15T04:52:43.776Z,13.03
2019-01-15T04:53:48.804Z,12.00
2019-01-15T04:54:54.066Z,13.10
2019-01-15T04:55:59.282Z,12.28
2019-01-15T04:57:04.810Z,12.65
2019-01-15T04:58:09.744Z,12.43
2019-01-15T04:59:14.607Z,12.75
2019-01-15T05:00:19.727Z,14.23
2019-01-15T05:01:25.155Z,13.15
2019-01-15T05:02:30.284Z,14.15
2019-01-15T05:03:35.217Z,14.90
2019-01-15T05:04:40.098Z,14.50
2019-01-15T05:05:44.507Z,15.50
2019-01-15T05:06:49.060Z,14.40
2019-01-15T05:07:53.738Z,15.80
2019-01-15T05:08:58.394Z,15.68
2019-01-15T05:10:04.543Z,15.15
2019-01-15T05:11:09.252Z,16.50
2019-01-15T05:12:13.603Z,15.32
2019-01-15T05:13:18.066Z,15.85
2019-01-15T05:14:22.534Z,15.58
2019-01-15T05:15:27.238Z,16.23
2019-01-15T05:16:32.230Z,17.23
2019-01-15T05:17:36.844Z,16.50
2019-01-15T05:18:41.396Z,16.25
2019-01-15T05:19:46.083Z,15.20
2019-01-15T05:20:50.703Z,15.35
2019-01-15T05:21:55.683Z,15.88
2019-01-15T05:23:00.525Z,16.17
2019-01-15T05:24:05.196Z,15.35
2019-01-15T05:25:12.385Z,19.85
2019-01-15T05:26:17.030Z,25.60
2019-01-15T05:27:21.494Z,18.67
2019-01-15T05:28:25.976Z,15.50
2019-01-15T05:29:30.532Z,16.25
2019-01-15T05:30:35.087Z,16.07
2019-01-15T05:31:39.804Z,16.40
2019-01-15T05:32:44.477Z,16.20
2019-01-15T05:33:49.134Z,15.63
2019-01-15T05:34:53.889Z,16.77
2019-01-15T05:35:58.905Z,15.45
2019-01-15T05:37:03.556Z,16.97
2019-01-15T05:38:08.532Z,15.43
2019-01-15T05:39:14.072Z,17.00
2019-01-15T05:40:18.640Z,17.27
2019-01-15T05:41:23.450Z,17.25
2019-01-15T05:42:27.871Z,16.30
2019-01-15T05:43:35.887Z,16.45
2019-01-15T05:44:39.403Z,16.82
2019-01-15T05:45:46.726Z,17.10
2019-01-15T05:46:51.899Z,16.70
2019-01-15T05:48:00.723Z,16.32
2019-01-15T05:49:05.458Z,16.95
2019-01-15T05:50:13.518Z,17.23
2019-01-15T05:51:27.672Z,16.65
2019-01-15T05:52:32.107Z,16.80
2019-01-15T05:53:36.817Z,16.32
2019-01-15T05:54:41.128Z,16.45
2019-01-15T05:55:45.712Z,16.67
2019-01-15T05:56:50.124Z,16.37
2019-01-15T05:57:54.732Z,16.80
2019-01-15T05:58:59.289Z,16.75
2019-01-15T06:00:05.436Z,16.75
2019-01-15T06:01:10.027Z,15.95
2019-01-15T06:02:14.435Z,16.80
2019-01-15T06:03:18.822Z,16.50
2019-01-15T06:04:23.269Z,16.57
2019-01-15T06:05:27.807Z,16.45
2019-01-15T06:06:32.401Z,15.23
2019-01-15T06:07:37.162Z,16.23
2019-01-15T06:08:41.513Z,16.35
2019-01-15T06:09:45.954Z,17.12
2019-01-15T06:10:50.427Z,15.65
2019-01-15T06:11:54.889Z,17.57
2019-01-15T06:12:59.382Z,15.90
2019-01-15T06:14:04.233Z,16.07
2019-01-15T06:15:10.195Z,16.20
2019-01-15T06:16:14.880Z,16.57
2019-01-15T06:17:19.292Z,16.30
2019-01-15T06:18:23.774Z,16.40
2019-01-15T06:19:28.608Z,15.43
2019-01-15T06:20:33.435Z,15.90
2019-01-15T06:21:37.884Z,15.10
2019-01-15T06:22:42.238Z,15.78
2019-01-15T06:23:46.556Z,15.18
2019-01-15T06:24:50.860Z,16.02
2019-01-15T06:25:55.165Z,16.12
2019-01-15T06:26:59.678Z,16.45
2019-01-15T06:28:04.528Z,15.83
2019-01-15T06:29:09.678Z,15.72
2019-01-15T06:30:14.691Z,15.98
2019-01-15T06:31:20.019Z,15.18
2019-01-15T06:32:24.446Z,15.53
2019-01-15T06:33:28.812Z,16.27
2019-01-15T06:34:33.556Z,16.55
2019-01-15T06:35:38.379Z,15.58
2019-01-15T06:36:43.153Z,16.32
2019-01-15T06:37:48.101Z,15.05
2019-01-15T06:38:52.588Z,16.75
2019-01-15T06:39:56.994Z,16.15
2019-01-15T06:41:01.379Z,16.15
2019-01-15T06:42:05.987Z,15.30
2019-01-15T06:43:10.684Z,16.45
2019-01-15T06:44:15.279Z,16.15
2019-01-15T06:45:21.191Z,16.77
2019-01-15T06:46:25.788Z,16.00
2019-01-15T06:47:30.145Z,16.62
2019-01-15T06:48:34.536Z,15.45
2019-01-15T06:49:39.023Z,15.00
2019-01-15T06:50:43.438Z,16.62
2019-01-15T06:51:49.270Z,15.75
2019-01-15T06:52:53.858Z,16.52
2019-01-15T06:53:58.267Z,15.98
2019-01-15T06:55:03.765Z,16.27
2019-01-15T06:56:08.339Z,16.37
2019-01-15T06:57:12.966Z,15.88
2019-01-15T06:58:17.434Z,15.95
2019-01-15T06:59:22.110Z,16.65
2019-01-15T07:00:27.249Z,15.88
2019-01-15T07:01:31.505Z,16.27
2019-01-15T07:02:35.968Z,16.25
2019-01-15T07:03:40.678Z,15.60
2019-01-15T07:04:45.156Z,17.85
2019-01-15T07:05:49.735Z,16.97
2019-01-15T07:06:54.248Z,16.23
2019-01-15T07:07:58.785Z,16.45
2019-01-15T07:09:06.926Z,15.63
2019-01-15T07:10:14.901Z,15.80
2019-01-15T07:11:19.641Z,15.53
2019-01-15T07:12:31.889Z,15.65
2019-01-15T07:13:33.892Z,15.90
2019-01-15T07:14:38.319Z,14.98
2019-01-15T07:15:42.806Z,16.55
2019-01-15T07:16:47.315Z,15.93
2019-01-15T07:17:51.984Z,15.50
2019-01-15T07:18:56.370Z,16.42
2019-01-15T07:20:00.862Z,14.70
2019-01-15T07:21:05.139Z,14.15
2019-01-15T07:22:09.562Z,16.17
2019-01-15T07:23:13.905Z,15.68
2019-01-15T07:24:18.438Z,16.10
2019-01-15T07:25:23.237Z,15.68
2019-01-15T07:26:27.883Z,15.43
2019-01-15T07:27:32.305Z,15.43
2019-01-15T07:28:36.754Z,15.23
2019-01-15T07:29:41.028Z,15.13
2019-01-15T07:30:48.121Z,16.48
2019-01-15T07:31:52.833Z,15.40
2019-01-15T07:32:57.338Z,15.43
2019-01-15T07:34:01.899Z,15.25
2019-01-15T07:35:06.795Z,15.53
2019-01-15T07:36:11.219Z,15.32
2019-01-15T07:37:15.605Z,15.58
2019-01-15T07:38:19.959Z,16.23
2019-01-15T07:39:24.595Z,15.93
2019-01-15T07:40:29.024Z,15.65
2019-01-15T07:41:33.576Z,15.72
2019-01-15T07:42:38.165Z,16.45
2019-01-15T07:43:42.531Z,16.07
2019-01-15T07:44:46.931Z,16.15
2019-01-15T07:45:51.370Z,14.95
2019-01-15T07:46:56.261Z,15.38
2019-01-15T07:48:00.895Z,15.43
2019-01-15T07:49:05.528Z,16.60
2019-01-15T07:50:12.940Z,15.10
2019-01-15T07:51:17.397Z,15.60
2019-01-15T07:52:21.730Z,14.43
2019-01-15T07:53:26.215Z,15.93
2019-01-15T07:54:30.676Z,15.78
2019-01-15T07:55:35.170Z,15.90
2019-01-15T07:56:39.771Z,15.78
2019-01-15T07:57:44.061Z,15.60
2019-01-15T07:58:48.446Z,15.98
2019-01-15T07:59:52.724Z,15.72
2019-01-15T08:00:57.066Z,17.00
2019-01-15T08:02:01.415Z,16.60
2019-01-15T08:03:06.123Z,15.98
2019-01-15T08:04:10.976Z,16.95
2019-01-15T08:05:16.272Z,15.23
2019-01-15T08:06:21.083Z,16.93
2019-01-15T08:07:25.451Z,17.27
2019-01-15T08:08:29.732Z,16.15
2019-01-15T08:09:34.035Z,16.75
2019-01-15T08:10:38.611Z,17.25
2019-01-15T08:11:43.404Z,16.30
2019-01-15T08:12:48.486Z,16.32
2019-01-15T08:13:52.990Z,16.87
2019-01-15T08:14:57.386Z,16.85
2019-01-15T08:16:01.833Z,17.15
2019-01-15T08:17:06.341Z,17.42
2019-01-15T08:18:10.911Z,17.17
2019-01-15T08:19:15.706Z,17.23
2019-01-15T08:20:20.369Z,16.87
2019-01-15T08:21:24.754Z,17.75
2019-01-15T08:22:29.187Z,17.42
2019-01-15T08:23:33.675Z,17.35
2019-01-15T08:24:38.040Z,18.15
2019-01-15T08:25:42.310Z,16.70
2019-01-15T08:26:46.695Z,17.55
2019-01-15T08:27:51.275Z,18.00
2019-01-15T08:28:55.789Z,18.77
2019-01-15T08:30:00.335Z,17.30
2019-01-15T08:31:04.757Z,17.02
2019-01-15T08:32:09.132Z,16.82
2019-01-15T08:33:13.469Z,18.50
2019-01-15T08:34:17.866Z,17.62
2019-01-15T08:35:22.435Z,17.85
2019-01-15T08:36:26.742Z,19.50
2019-01-15T08:37:31.288Z,17.77
2019-01-15T08:38:35.714Z,18.60
2019-01-15T08:39:40.064Z,19.30
2019-01-15T08:40:44.517Z,18.00
2019-01-15T08:41:48.902Z,17.50
2019-01-15T08:42:53.563Z,19.67
2019-01-15T08:43:58.385Z,18.30
2019-01-15T08:45:03.712Z,18.45
2019-01-15T08:46:08.385Z,18.57
2019-01-15T08:47:13.376Z,19.17
2019-01-15T08:48:19.582Z,19.07
2019-01-15T08:49:24.091Z,19.02
2019-01-15T08:50:28.617Z,19.40
2019-01-15T08:51:33.140Z,18.55
2019-01-15T08:52:37.990Z,18.37
2019-01-15T08:53:42.742Z,18.98
2019-01-15T08:54:47.344Z,19.05
2019-01-15T08:55:55.463Z,18.67
2019-01-15T08:57:00.343Z,18.67
2019-01-15T08:58:04.719Z,18.45
2019-01-15T08:59:09.346Z,18.87
2019-01-15T09:00:13.954Z,18.87
2019-01-15T09:01:18.167Z,18.40
2019-01-15T09:02:22.534Z,19.05
2019-01-15T09:03:27.049Z,19.60
2019-01-15T09:04:31.694Z,19.02
2019-01-15T09:05:36.296Z,18.77
2019-01-15T09:06:41.011Z,18.55
2019-01-15T09:07:45.626Z,18.55
2019-01-15T09:08:50.422Z,18.25
2019-01-15T09:09:54.827Z,18.92
2019-01-15T09:10:59.177Z,17.60
2019-01-15T09:12:03.518Z,16.75
2019-01-15T09:13:08.010Z,18.60
2019-01-15T09:14:12.448Z,18.50
2019-01-15T09:15:17.093Z,17.82
2019-01-15T09:16:21.538Z,19.10
2019-01-15T09:17:25.959Z,18.02
2019-01-15T09:18:30.387Z,17.77
2019-01-15T09:19:34.759Z,17.75
2019-01-15T09:20:39.041Z,17.57
2019-01-15T09:21:43.486Z,18.57
2019-01-15T09:22:47.962Z,18.23
2019-01-15T09:23:52.417Z,18.17
2019-01-15T09:24:56.981Z,17.25
2019-01-15T09:26:01.355Z,17.73
2019-01-15T09:27:05.859Z,18.50
2019-01-15T09:28:10.254Z,17.07
2019-01-15T09:29:15.176Z,18.55
2019-01-15T09:30:20.815Z,17.75
2019-01-15T09:31:25.360Z,16.65
2019-01-15T09:32:29.781Z,18.23
2019-01-15T09:33:34.257Z,17.27
2019-01-15T09:34:38.738Z,17.25
2019-01-15T09:35:43.039Z,17.35
2019-01-15T09:36:47.419Z,17.87
2019-01-15T09:37:51.824Z,17.62
2019-01-15T09:38:56.232Z,18.48
2019-01-15T09:40:00.748Z,18.35
2019-01-15T09:41:05.298Z,18.87
2019-01-15T09:42:09.852Z,17.75
2019-01-15T09:43:14.318Z,17.55
2019-01-15T09:44:18.714Z,19.02
2019-01-15T09:45:23.563Z,16.90
2019-01-15T09:46:28.042Z,17.02
2019-01-15T09:47:32.876Z,18.57
2019-01-15T09:48:37.805Z,16.93
2019-01-15T09:49:42.241Z,17.67
2019-01-15T09:50:46.602Z,18.57
2019-01-15T09:51:51.058Z,17.65
2019-01-15T09:52:55.481Z,18.35
2019-01-15T09:53:59.753Z,16.85
2019-01-15T09:55:04.843Z,17.15
2019-01-15T09:56:09.288Z,17.60
2019-01-15T09:57:14.018Z,17.20
2019-01-15T09:58:18.389Z,18.77
2019-01-15T09:59:22.732Z,17.37
2019-01-15T10:00:27.126Z,17.52
2019-01-15T10:01:31.413Z,17.75
2019-01-15T10:02:35.905Z,16.40
2019-01-15T10:03:40.397Z,17.17
2019-01-15T10:04:44.950Z,16.85
2019-01-15T10:05:49.519Z,16.97
2019-01-15T10:06:53.867Z,17.12
2019-01-15T10:07:58.222Z,17.30
2019-01-15T10:09:05.455Z,16.48
2019-01-15T10:10:10.255Z,16.32
2019-01-15T10:11:15.003Z,17.07
2019-01-15T10:12:19.531Z,16.77
2019-01-15T10:13:24.116Z,15.58
2019-01-15T10:14:28.494Z,16.02
2019-01-15T10:15:32.854Z,17.45
2019-01-15T10:16:37.227Z,15.93
2019-01-15T10:17:41.664Z,15.95
2019-01-15T10:18:46.068Z,15.72
2019-01-15T10:19:50.553Z,16.45
2019-01-15T10:20:55.232Z,15.88
2019-01-15T10:21:59.514Z,15.95
2019-01-15T10:23:04.223Z,16.30
2019-01-15T10:24:08.757Z,15.13
2019-01-15T10:25:16.891Z,16.35
2019-01-15T10:26:21.544Z,16.17
2019-01-15T10:27:26.152Z,15.40
2019-01-15T10:28:30.353Z,15.45
2019-01-15T10:29:34.879Z,15.70
2019-01-15T10:31:21.543Z,15.68
2019-01-15T10:32:54.658Z,15.63
2019-01-15T10:34:15.479Z,13.32
2019-01-15T10:35:50.251Z,12.50
2019-01-15T10:36:53.719Z,12.37
2019-01-15T10:37:58.020Z,11.57
2019-01-15T10:39:04.251Z,11.97
2019-01-15T10:40:09.024Z,12.23
2019-01-15T10:41:13.379Z,12.10
2019-01-15T10:42:18.012Z,11.20
2019-01-15T10:43:22.316Z,12.03
2019-01-15T10:44:26.920Z,10.93
2019-01-15T10:45:31.236Z,11.53
2019-01-15T10:46:35.635Z,10.58
2019-01-15T10:47:40.183Z,11.28
2019-01-15T10:48:44.742Z,10.60
2019-01-15T10:49:49.444Z,10.53
2019-01-15T10:50:54.246Z,9.73
2019-01-15T10:51:58.638Z,9.85
2019-01-15T10:53:03.071Z,10.50
2019-01-15T10:54:07.743Z,10.00
2019-01-15T10:55:12.116Z,10.20
2019-01-15T10:56:16.621Z,10.45
2019-01-15T10:57:21.115Z,9.23
2019-01-15T10:58:25.654Z,9.65
2019-01-15T10:59:30.118Z,9.25
2019-01-15T11:00:34.560Z,8.65
2019-01-15T11:01:38.910Z,9.13
2019-01-15T11:02:43.358Z,8.65
2019-01-15T11:03:47.747Z,8.93
2019-01-15T11:04:52.278Z,8.98
2019-01-15T11:05:56.916Z,9.30
2019-01-15T11:07:01.432Z,9.08
2019-01-15T11:08:05.834Z,8.03
2019-01-15T11:09:10.217Z,8.90
2019-01-15T11:10:14.562Z,9.03
2019-01-15T11:11:18.887Z,9.05
2019-01-15T11:12:23.230Z,8.70
2019-01-15T11:13:27.782Z,8.08
2019-01-15T11:14:32.408Z,8.33
2019-01-15T11:15:43.181Z,8.50
2019-01-15T11:16:43.149Z,8.23
2019-01-15T11:17:47.599Z,9.38
2019-01-15T11:18:52.267Z,7.72
2019-01-15T11:19:57.064Z,8.88
2019-01-15T11:21:01.475Z,8.55
2019-01-15T11:22:06.010Z,8.75
2019-01-15T11:23:10.490Z,8.38
2019-01-15T11:24:15.063Z,7.30
2019-01-15T11:25:19.374Z,8.30
2019-01-15T11:26:23.833Z,7.85
2019-01-15T11:27:28.128Z,7.28
2019-01-15T11:28:32.666Z,7.42
2019-01-15T11:29:37.154Z,7.08
2019-01-15T11:30:42.355Z,6.40
2019-01-15T11:31:46.894Z,7.97
2019-01-15T11:32:51.260Z,7.08
2019-01-15T11:33:55.504Z,7.58
2019-01-15T11:34:59.806Z,6.33
2019-01-15T11:36:04.208Z,6.25
2019-01-15T11:37:08.702Z,5.62
2019-01-15T11:38:13.312Z,5.80
2019-01-15T11:39:17.851Z,6.25
2019-01-15T11:40:22.651Z,5.65
2019-01-15T11:41:26.917Z,5.58
2019-01-15T11:42:31.203Z,5.67
2019-01-15T11:43:35.541Z,5.65
2019-01-15T11:44:39.967Z,5.37
2019-01-15T11:45:44.402Z,6.00
2019-01-15T11:46:48.959Z,6.20
2019-01-15T11:47:53.558Z,5.42
2019-01-15T11:48:58.063Z,4.83
2019-01-15T11:50:02.686Z,5.17
2019-01-15T11:51:07.357Z,5.25
2019-01-15T11:52:11.662Z,4.25
2019-01-15T11:53:15.954Z,4.17
2019-01-15T11:54:20.500Z,4.45
2019-01-15T11:55:25.103Z,4.20
2019-01-15T11:56:29.722Z,4.55
2019-01-15T11:57:34.142Z,4.37
2019-01-15T11:58:38.519Z,4.62
2019-01-15T11:59:42.864Z,5.17
2019-01-15T12:00:57.845Z,4.22
2019-01-15T12:02:27.740Z,3.75
2019-01-15T12:03:54.717Z,4.78
2019-01-15T12:05:24.841Z,4.10
2019-01-15T12:06:57.743Z,3.95
2019-01-15T12:08:25.192Z,4.00
2019-01-15T12:09:47.840Z,4.05
2019-01-15T12:11:14.706Z,4.03
2019-01-15T12:12:31.895Z,3.50
2019-01-15T12:13:47.013Z,3.90
2019-01-15T12:15:11.208Z,3.42
2019-01-15T12:16:29.521Z,3.98
2019-01-15T12:18:11.672Z,3.30
2019-01-15T12:19:33.639Z,3.40
2019-01-15T12:21:15.579Z,3.45
2019-01-15T12:22:39.240Z,3.83
2019-01-15T12:24:15.331Z,4.25
2019-01-15T12:25:42.290Z,3.30
2019-01-15T12:26:54.714Z,3.40
2019-01-15T12:28:30.636Z,3.20
2019-01-15T12:29:54.902Z,3.58
2019-01-15T12:31:24.948Z,3.47
2019-01-15T12:32:44.811Z,3.20
2019-01-15T12:34:02.963Z,3.70
2019-01-15T12:35:30.023Z,3.37
2019-01-15T12:36:52.955Z,3.67
2019-01-15T12:38:22.983Z,3.20
2019-01-15T12:39:48.944Z,2.98
2019-01-15T12:41:11.793Z,3.10
2019-01-15T12:42:35.747Z,2.87
2019-01-15T12:44:08.310Z,3.45
2019-01-15T12:45:33.370Z,2.92
2019-01-15T12:46:55.603Z,3.27
2019-01-15T12:48:22.675Z,3.40
2019-01-15T12:49:46.670Z,3.00
2019-01-15T12:51:10.858Z,3.30
2019-01-15T12:52:31.751Z,3.00
2019-01-15T12:53:54.270Z,3.52
2019-01-15T12:55:24.267Z,3.67
2019-01-15T12:57:03.459Z,2.92
2019-01-15T12:58:34.382Z,3.27
2019-01-15T12:59:54.138Z,3.75
2019-01-15T13:01:27.274Z,3.27
2019-01-15T13:02:49.934Z,3.22
2019-01-15T13:04:14.042Z,3.95
2019-01-15T13:05:40.648Z,3.55
2019-01-15T13:07:04.834Z,3.70
2019-01-15T13:08:29.102Z,2.92
2019-01-15T13:09:54.289Z,3.62
2019-01-15T13:11:16.608Z,3.62
2019-01-15T13:12:40.430Z,3.95
2019-01-15T13:14:04.588Z,3.17
2019-01-15T13:15:34.451Z,3.12
2019-01-15T13:16:51.574Z,4.15
2019-01-15T13:18:18.729Z,3.20
2019-01-15T13:19:57.619Z,4.97
2019-01-15T13:21:30.745Z,8.03
2019-01-15T13:22:53.231Z,5.90
2019-01-15T13:24:18.776Z,4.55
2019-01-15T13:25:48.976Z,3.42
2019-01-15T13:27:11.710Z,3.85
2019-01-15T13:28:38.533Z,3.02
2019-01-15T13:30:02.646Z,2.80
2019-01-15T13:31:29.974Z,3.12
2019-01-15T13:32:43.011Z,3.00
2019-01-15T13:34:13.401Z,2.87
2019-01-15T13:35:35.728Z,3.52
2019-01-15T13:36:45.713Z,2.77
2019-01-15T13:38:12.111Z,2.75
2019-01-15T13:39:48.418Z,3.20
2019-01-15T13:41:12.363Z,2.87
2019-01-15T13:42:30.218Z,3.20
2019-01-15T13:43:53.025Z,2.92
2019-01-15T13:45:15.551Z,3.33
2019-01-15T13:46:39.529Z,3.00
2019-01-15T13:48:02.201Z,3.17
2019-01-15T13:49:24.690Z,2.75
2019-01-15T13:50:57.979Z,3.02
2019-01-15T13:52:25.210Z,2.77
2019-01-15T13:53:43.635Z,3.37
2019-01-15T13:55:03.194Z,2.83
2019-01-15T13:56:39.159Z,3.37
2019-01-15T13:58:18.219Z,3.22
2019-01-15T13:59:42.303Z,2.92
2019-01-15T14:01:09.512Z,2.83
2019-01-15T14:02:28.681Z,2.67
2019-01-15T14:03:55.775Z,3.27
2019-01-15T14:05:19.873Z,3.25
2019-01-15T14:06:56.351Z,3.52
2019-01-15T14:08:32.358Z,2.98
2019-01-15T14:09:59.779Z,2.92
2019-01-15T14:11:22.732Z,3.15
2019-01-15T14:12:55.629Z,3.10
2019-01-15T14:14:21.790Z,3.27
2019-01-15T14:15:49.118Z,3.12
2019-01-15T14:17:09.008Z,3.42
2019-01-15T14:18:33.168Z,3.60
2019-01-15T14:20:15.656Z,3.15
2019-01-15T14:21:57.445Z,3.20
2019-01-15T14:23:30.963Z,3.50
2019-01-15T14:24:45.310Z,3.30
2019-01-15T14:26:07.428Z,3.50
2019-01-15T14:27:46.441Z,3.58
2019-01-15T14:29:04.407Z,3.22
2019-01-15T14:30:30.287Z,3.50
2019-01-15T14:32:03.724Z,3.27
2019-01-15T14:33:30.839Z,3.27
2019-01-15T14:34:52.927Z,3.22
2019-01-15T14:36:16.700Z,3.25
2019-01-15T14:37:47.023Z,3.80
2019-01-15T14:39:18.586Z,3.58
2019-01-15T14:40:48.405Z,3.60
2019-01-15T14:42:12.461Z,3.33
2019-01-15T14:43:39.734Z,3.50
2019-01-15T14:45:02.471Z,3.30
2019-01-15T14:46:25.023Z,3.75
2019-01-15T14:48:06.630Z,3.62
2019-01-15T14:49:29.440Z,3.70
2019-01-15T14:50:51.939Z,4.17
2019-01-15T14:52:06.392Z,4.40
2019-01-15T14:53:33.282Z,3.62
2019-01-15T14:55:09.577Z,3.83
2019-01-15T14:56:36.982Z,4.17
2019-01-15T14:58:01.268Z,4.28
2019-01-15T14:59:28.488Z,3.83
2019-01-15T15:01:02.218Z,3.85
2019-01-15T15:02:25.110Z,3.42
2019-01-15T15:03:39.592Z,4.60
2019-01-15T15:05:02.567Z,4.30
2019-01-15T15:06:17.212Z,4.45
2019-01-15T15:07:50.669Z,4.08
2019-01-15T15:09:15.279Z,3.87
2019-01-15T15:10:39.427Z,4.00
2019-01-15T15:12:16.107Z,4.55
2019-01-15T15:13:33.361Z,4.40
2019-01-15T15:14:57.466Z,5.25
2019-01-15T15:16:27.217Z,4.60
2019-01-15T15:17:55.750Z,3.98
2019-01-15T15:19:25.712Z,3.77
2019-01-15T15:20:58.629Z,3.90
2019-01-15T15:22:18.315Z,3.50
2019-01-15T15:23:45.561Z,3.83
2019-01-15T15:25:15.507Z,4.20
2019-01-15T15:26:32.476Z,3.50
2019-01-15T15:28:03.010Z,4.00
2019-01-15T15:29:29.589Z,4.25
2019-01-15T15:30:45.062Z,3.85
2019-01-15T15:32:01.699Z,4.05
2019-01-15T15:33:28.743Z,4.03
2019-01-15T15:34:51.603Z,4.20
2019-01-15T15:36:15.589Z,4.17
2019-01-15T15:37:57.608Z,4.28
2019-01-15T15:39:30.560Z,4.45
2019-01-15T15:41:04.177Z,3.65
2019-01-15T15:42:33.183Z,3.83
2019-01-15T15:43:46.461Z,3.85
2019-01-15T15:45:13.562Z,3.92
2019-01-15T15:46:36.146Z,4.20
2019-01-15T15:47:58.947Z,4.33
2019-01-15T15:49:21.596Z,4.55
2019-01-15T15:51:00.854Z,4.55
2019-01-15T15:52:23.546Z,4.45
2019-01-15T15:53:47.737Z,3.95
2019-01-15T15:55:20.835Z,4.65
2019-01-15T15:57:03.192Z,4.22
2019-01-15T15:58:36.423Z,4.65
2019-01-15T16:00:07.763Z,4.22
2019-01-15T16:01:26.529Z,4.28
2019-01-15T16:02:50.739Z,5.47
2019-01-15T16:04:21.109Z,4.53
2019-01-15T16:05:52.546Z,5.00
2019-01-15T16:07:19.652Z,4.55
2019-01-15T16:08:42.327Z,4.75
2019-01-15T16:10:04.992Z,5.47
2019-01-15T16:11:38.179Z,4.35
2019-01-15T16:13:07.926Z,4.60